createdAt,value
2022-08-09T00:01:10.658Z,15.70
2022-08-09T00:04:00.477Z,15.70
2022-08-09T00:06:28.322Z,15.70
2022-08-09T00:08:58.996Z,15.60
2022-08-09T00:11:55.074Z,15.50
2022-08-09T00:14:21.709Z,15.60
2022-08-09T00:16:49.118Z,15.50
2022-08-09T00:19:18.483Z,15.50
2022-08-09T00:21:55.882Z,15.50
2022-08-09T00:24:24.660Z,15.40
2022-08-09T00:26:54.108Z,15.30
2022-08-09T00:29:39.918Z,15.20
2022-08-09T00:32:07.840Z,15.20
2022-08-09T00:34:39.416Z,15.10
2022-08-09T00:37:13.133Z,15.20
2022-08-09T00:40:12.596Z,15.20
2022-08-09T00:44:14.737Z,15.20
2022-08-09T00:45:16.037Z,15.20
2022-08-09T00:47:43.600Z,15.20
2022-08-09T00:50:14.665Z,15.20
2022-08-09T00:52:42.012Z,15.20
2022-08-09T00:55:16.812Z,15.20
2022-08-09T00:57:59.476Z,15.10
2022-08-09T01:00:27.778Z,15.10
2022-08-09T01:03:17.125Z,15.10
2022-08-09T01:05:54.618Z,15.00
2022-08-09T01:08:27.457Z,15.10
2022-08-09T01:11:27.607Z,15.10
2022-08-09T01:14:04.573Z,15.00
2022-08-09T01:16:40.164Z,14.90
2022-08-09T01:19:40.278Z,14.90
2022-08-09T01:22:36.575Z,14.80
2022-08-09T01:25:27.906Z,14.70
2022-08-09T01:27:57.114Z,14.70
2022-08-09T01:30:35.748Z,14.60
2022-08-09T01:33:16.910Z,14.60
2022-08-09T01:35:53.348Z,14.70
2022-08-09T01:38:25.669Z,14.70
2022-08-09T01:41:04.878Z,14.70
2022-08-09T01:43:41.786Z,14.70
2022-08-09T01:46:26.566Z,14.70
2022-08-09T01:48:57.259Z,14.70
2022-08-09T01:51:32.293Z,14.70
2022-08-09T01:54:02.780Z,14.60
2022-08-09T01:56:32.749Z,14.50
2022-08-09T01:59:03.794Z,14.40
2022-08-09T02:01:58.346Z,14.40
2022-08-09T02:04:21.831Z,14.40
2022-08-09T02:07:17.862Z,14.50
2022-08-09T02:10:05.628Z,14.40
2022-08-09T02:12:37.660Z,14.40
2022-08-09T02:15:08.307Z,14.40
2022-08-09T02:17:59.905Z,14.40
2022-08-09T02:20:32.808Z,14.30
2022-08-09T02:23:18.736Z,14.30
2022-08-09T02:25:52.776Z,14.30
2022-08-09T02:28:42.972Z,14.10
2022-08-09T02:31:20.896Z,14.00
2022-08-09T02:34:07.076Z,14.10
2022-08-09T02:36:42.040Z,14.10
2022-08-09T02:39:20.023Z,14.20
2022-08-09T02:42:05.703Z,14.10
2022-08-09T02:44:38.182Z,14.10
2022-08-09T02:47:09.863Z,14.10
2022-08-09T02:49:47.918Z,14.10
2022-08-09T02:52:35.267Z,14.10
2022-08-09T02:55:15.193Z,14.10
2022-08-09T02:58:00.343Z,14.10
2022-08-09T03:00:39.550Z,14.10
2022-08-09T03:03:37.043Z,14.10
2022-08-09T03:06:05.810Z,14.00
2022-08-09T03:08:36.190Z,13.90
2022-08-09T03:11:04.291Z,13.90
2022-08-09T03:13:43.274Z,13.80
2022-08-09T03:16:19.231Z,13.80
2022-08-09T03:18:47.835Z,13.80
2022-08-09T03:21:25.937Z,13.70
2022-08-09T03:24:04.333Z,13.80
2022-08-09T03:26:33.569Z,13.80
2022-08-09T03:29:01.196Z,13.80
2022-08-09T03:31:42.378Z,13.70
2022-08-09T03:34:24.103Z,13.70
2022-08-09T03:36:59.562Z,13.60
2022-08-09T03:39:37.535Z,13.60
2022-08-09T03:42:06.236Z,13.60
2022-08-09T03:44:34.143Z,13.60
2022-08-09T03:47:00.904Z,13.60
2022-08-09T03:49:32.801Z,13.70
2022-08-09T03:52:04.330Z,13.70
2022-08-09T03:54:34.858Z,13.60
2022-08-09T03:57:18.089Z,13.50
2022-08-09T03:59:54.826Z,13.60
2022-08-09T04:02:28.352Z,13.60
2022-08-09T04:05:06.551Z,13.60
2022-08-09T04:07:52.683Z,13.60
2022-08-09T04:10:29.336Z,13.50
2022-08-09T04:13:01.239Z,13.60
2022-08-09T04:16:17.327Z,13.60
2022-08-09T04:18:19.449Z,13.60
2022-08-09T04:20:49.250Z,13.60
2022-08-09T04:23:16.676Z,13.60
2022-08-09T04:25:45.035Z,13.60
2022-08-09T04:28:33.628Z,13.60
2022-08-09T04:31:09.018Z,13.70
2022-08-09T04:33:51.755Z,13.70
2022-08-09T04:36:25.003Z,13.70
2022-08-09T04:38:53.244Z,13.70
2022-08-09T04:41:23.823Z,13.70
2022-08-09T04:44:05.829Z,13.70
2022-08-09T04:46:38.293Z,13.80
2022-08-09T04:49:30.517Z,13.70
2022-08-09T04:52:09.697Z,13.70
2022-08-09T04:54:37.021Z,13.70
2022-08-09T04:57:04.140Z,13.80
2022-08-09T04:59:31.419Z,13.90
2022-08-09T05:01:58.410Z,14.00
2022-08-09T05:04:31.087Z,14.10
2022-08-09T05:06:58.530Z,14.10
2022-08-09T05:09:25.328Z,14.20
2022-08-09T05:12:09.789Z,14.30
2022-08-09T05:14:41.005Z,14.40
2022-08-09T05:18:36.813Z,14.50
2022-08-09T05:19:58.148Z,14.60
2022-08-09T05:22:33.445Z,14.70
2022-08-09T05:25:12.152Z,14.70
2022-08-09T05:27:45.475Z,14.70
2022-08-09T05:30:15.955Z,14.80
2022-08-09T05:32:45.464Z,15.00
2022-08-09T05:35:18.052Z,15.20
2022-08-09T05:37:47.839Z,15.30
2022-08-09T05:40:18.300Z,15.50
2022-08-09T05:42:45.509Z,15.70
2022-08-09T05:45:14.391Z,15.90
2022-08-09T05:47:52.545Z,16.10
2022-08-09T05:50:44.065Z,16.40
2022-08-09T05:53:21.652Z,16.70
2022-08-09T05:55:58.889Z,17.10
2022-08-09T05:58:25.722Z,17.30
2022-08-09T06:00:53.734Z,17.50
2022-08-09T06:03:20.723Z,17.60
2022-08-09T06:05:54.525Z,17.60
2022-08-09T06:08:27.803Z,17.80
2022-08-09T06:10:58.004Z,18.00
2022-08-09T06:13:26.228Z,18.30
2022-08-09T06:15:55.611Z,18.30
2022-08-09T06:18:25.417Z,18.30
2022-08-09T06:20:59.060Z,18.40
2022-08-09T06:23:58.024Z,18.60
2022-08-09T06:26:19.931Z,19.20
2022-08-09T06:28:47.500Z,19.90
2022-08-09T06:31:15.029Z,20.70
2022-08-09T06:33:53.005Z,21.30
2022-08-09T06:36:20.191Z,21.80
2022-08-09T06:38:54.436Z,22.20
2022-08-09T06:41:24.933Z,22.60
2022-08-09T06:44:14.336Z,23.00
2022-08-09T06:46:45.529Z,23.10
2022-08-09T06:49:12.719Z,23.10
2022-08-09T06:51:43.066Z,23.10
2022-08-09T06:54:14.811Z,22.70
2022-08-09T06:56:45.573Z,22.60
2022-08-09T07:00:51.953Z,22.30
2022-08-09T07:02:03.705Z,22.10
2022-08-09T07:04:32.058Z,21.90
2022-08-09T07:07:00.382Z,21.60
2022-08-09T07:09:57.215Z,21.50
2022-08-09T07:12:18.680Z,21.40
2022-08-09T07:14:51.475Z,21.30
2022-08-09T07:17:21.496Z,21.30
2022-08-09T07:19:55.187Z,21.20
2022-08-09T07:22:27.426Z,21.20
2022-08-09T07:25:09.473Z,21.10
2022-08-09T07:27:43.066Z,21.20
2022-08-09T07:30:20.379Z,21.20
2022-08-09T07:32:51.813Z,21.20
2022-08-09T07:35:19.489Z,21.30
2022-08-09T07:37:49.181Z,21.40
2022-08-09T07:40:20.725Z,21.10
2022-08-09T07:43:00.771Z,21.30
2022-08-09T07:45:40.435Z,21.30
2022-08-09T07:48:25.409Z,21.30
2022-08-09T07:51:09.422Z,21.40
2022-08-09T07:54:05.475Z,21.50
2022-08-09T07:56:33.786Z,21.50
2022-08-09T07:59:01.011Z,21.60
2022-08-09T08:01:34.246Z,21.60
2022-08-09T08:04:02.699Z,21.70
2022-08-09T08:06:32.133Z,21.70
2022-08-09T08:09:05.328Z,21.60
2022-08-09T08:12:11.046Z,21.70
2022-08-09T08:14:31.964Z,21.80
2022-08-09T08:17:07.427Z,21.90
2022-08-09T08:19:35.030Z,21.80
2022-08-09T08:22:02.366Z,21.90
2022-08-09T08:24:39.921Z,21.90
2022-08-09T08:27:17.232Z,21.90
2022-08-09T08:29:50.169Z,22.00
2022-08-09T08:32:28.808Z,22.20
2022-08-09T08:34:58.863Z,22.20
2022-08-09T08:37:40.754Z,22.20
2022-08-09T08:40:14.934Z,22.20
2022-08-09T08:42:47.179Z,22.10
2022-08-09T08:45:16.505Z,22.30
2022-08-09T08:47:45.293Z,22.20
2022-08-09T08:50:18.206Z,22.00
2022-08-09T08:52:58.546Z,22.10
2022-08-09T08:55:27.262Z,22.20
2022-08-09T08:57:57.342Z,22.20
2022-08-09T09:00:30.462Z,21.90
2022-08-09T09:03:11.347Z,22.00
2022-08-09T09:05:59.563Z,21.90
2022-08-09T09:08:42.181Z,22.20
2022-08-09T09:11:17.498Z,22.40
2022-08-09T09:13:57.253Z,22.60
2022-08-09T09:16:34.790Z,22.60
2022-08-09T09:22:11.973Z,22.40
2022-08-09T09:24:46.870Z,22.50
2022-08-09T09:28:03.652Z,22.30
2022-08-09T09:30:38.178Z,22.50
2022-08-09T09:33:15.471Z,22.90
2022-08-09T09:36:03.942Z,23.30
2022-08-09T09:38:52.623Z,23.40
2022-08-09T09:41:32.597Z,23.60
2022-08-09T09:44:15.626Z,23.70
2022-08-09T09:47:15.185Z,23.60
2022-08-09T09:50:13.245Z,23.70
2022-08-09T09:52:53.963Z,23.90
2022-08-09T09:55:27.801Z,23.20
2022-08-09T09:58:16.530Z,23.20
2022-08-09T10:00:58.715Z,23.10
2022-08-09T10:03:44.822Z,23.30
2022-08-09T10:06:26.834Z,23.50
2022-08-09T10:09:02.923Z,23.70
2022-08-09T10:12:00.613Z,23.90
2022-08-09T10:14:33.664Z,24.00
2022-08-09T10:17:38.785Z,24.10
2022-08-09T10:20:14.973Z,24.20
2022-08-09T10:22:43.646Z,24.40
2022-08-09T10:25:14.188Z,24.50
2022-08-09T10:27:56.553Z,24.60
2022-08-09T10:33:29.862Z,24.50
2022-08-09T10:36:14.920Z,24.50
2022-08-09T10:38:56.442Z,24.50
2022-08-09T10:41:29.546Z,24.50
2022-08-09T10:44:02.423Z,24.50
2022-08-09T10:46:54.993Z,24.50
2022-08-09T10:49:54.377Z,24.50
2022-08-09T11:22:44.968Z,24.80
2022-08-09T11:25:14.723Z,24.40
2022-08-09T11:28:04.520Z,24.20
2022-08-09T11:30:45.893Z,24.20
2022-08-09T11:33:21.991Z,24.30
2022-08-09T11:35:59.989Z,24.30
2022-08-09T11:38:41.588Z,24.40
2022-08-09T11:41:17.995Z,24.50
2022-08-09T11:43:52.141Z,24.50
2022-08-09T11:46:33.570Z,24.50
2022-08-09T11:49:17.044Z,24.60
2022-08-09T11:53:03.991Z,24.60
2022-08-09T11:55:34.910Z,24.70
2022-08-09T11:58:32.533Z,24.70
2022-08-09T12:01:08.239Z,24.90
2022-08-09T12:03:55.706Z,25.00
2022-08-09T12:06:32.780Z,25.10
2022-08-09T12:09:17.511Z,25.20
2022-08-09T12:12:03.394Z,24.90
2022-08-09T12:14:40.826Z,24.80
2022-08-09T12:17:33.957Z,24.80
2022-08-09T12:20:27.564Z,24.70
2022-08-09T12:23:05.302Z,24.60
2022-08-09T12:25:37.474Z,24.70
2022-08-09T12:29:00.150Z,24.70
2022-08-09T12:31:11.247Z,24.50
2022-08-09T12:34:01.117Z,24.70
2022-08-09T12:36:34.010Z,24.80
2022-08-09T12:39:14.490Z,24.80
2022-08-09T12:41:45.131Z,24.80
2022-08-09T12:44:16.145Z,24.70
2022-08-09T12:46:49.067Z,24.90
2022-08-09T12:49:24.074Z,24.80
2022-08-09T12:52:02.253Z,24.80
2022-08-09T12:56:16.241Z,24.80
2022-08-09T12:58:27.366Z,24.90
2022-08-09T13:00:55.762Z,24.70
2022-08-09T13:03:53.315Z,24.50
2022-08-09T13:06:54.066Z,24.40
2022-08-09T13:09:25.564Z,24.60
2022-08-09T13:12:07.805Z,24.80
2022-08-09T13:14:45.523Z,24.90
2022-08-09T13:17:25.723Z,24.40
2022-08-09T13:20:17.518Z,24.60
2022-08-09T13:23:02.096Z,24.80
2022-08-09T13:25:54.357Z,24.60
2022-08-09T13:28:33.669Z,24.40
2022-08-09T13:32:18.067Z,24.30
2022-08-09T13:34:03.242Z,24.20
2022-08-09T13:36:42.509Z,24.30
2022-08-09T13:41:54.162Z,24.30
2022-08-09T13:42:11.904Z,24.30
2022-08-09T13:44:43.615Z,24.00
2022-08-09T13:47:33.792Z,24.20
2022-08-09T13:50:17.810Z,24.30
2022-08-09T13:52:50.202Z,24.50
2022-08-09T13:55:20.942Z,24.60
2022-08-09T14:06:26.743Z,24.80
2022-08-09T14:08:56.634Z,24.90
2022-08-09T14:11:24.945Z,24.80
2022-08-09T14:14:24.316Z,24.70
2022-08-09T14:16:40.245Z,24.60
2022-08-09T14:19:07.222Z,24.40
2022-08-09T14:21:34.077Z,24.30
2022-08-09T14:24:01.211Z,24.30
2022-08-09T14:26:36.831Z,24.30
2022-08-09T14:29:07.409Z,24.20
2022-08-09T14:31:50.014Z,24.10
2022-08-09T14:34:31.035Z,24.10
2022-08-09T14:37:01.693Z,24.00
2022-08-09T14:39:45.743Z,24.10
2022-08-09T14:42:30.565Z,24.00
2022-08-09T14:46:39.643Z,24.10
2022-08-09T14:47:57.359Z,24.20
2022-08-09T14:50:31.428Z,24.30
2022-08-09T14:53:11.645Z,24.20
2022-08-09T14:55:50.286Z,24.40
2022-08-09T14:58:21.303Z,24.40
2022-08-09T15:00:52.232Z,24.60
2022-08-09T15:03:24.987Z,24.70
2022-08-09T15:06:01.572Z,24.90
2022-08-09T15:08:31.490Z,25.00
2022-08-09T15:11:00.457Z,25.10
2022-08-09T15:13:28.205Z,25.10
2022-08-09T15:16:14.583Z,25.10
2022-08-09T15:18:41.886Z,25.00
2022-08-09T15:21:55.329Z,24.90
2022-08-09T15:24:06.098Z,24.90
2022-08-09T15:26:46.333Z,24.90
2022-08-09T15:30:48.536Z,24.80
2022-08-09T15:32:00.874Z,24.80
2022-08-09T15:34:34.374Z,24.60
2022-08-09T15:37:37.737Z,24.50
2022-08-09T15:40:15.192Z,24.40
2022-08-09T15:42:50.648Z,24.40
2022-08-09T15:45:21.642Z,24.40
2022-08-09T15:48:05.610Z,24.40
2022-08-09T15:50:43.697Z,24.30
2022-08-09T15:53:32.649Z,24.30
2022-08-09T15:56:21.695Z,24.30
2022-08-09T15:58:44.897Z,24.20
2022-08-09T16:01:13.644Z,24.20
2022-08-09T16:03:41.636Z,24.20
2022-08-09T16:06:27.359Z,24.10
2022-08-09T16:08:56.757Z,24.10
2022-08-09T16:11:30.857Z,24.20
2022-08-09T16:14:03.450Z,24.20
2022-08-09T16:16:34.534Z,24.20
2022-08-09T16:19:01.677Z,24.20
2022-08-09T16:21:31.804Z,24.20
2022-08-09T16:24:02.861Z,24.30
2022-08-09T16:26:34.707Z,24.30
2022-08-09T16:29:15.203Z,24.30
2022-08-09T16:32:19.750Z,24.30
2022-08-09T16:34:54.425Z,24.30
2022-08-09T16:37:18.642Z,24.30
2022-08-09T16:39:54.426Z,24.30
2022-08-09T16:42:29.499Z,24.20
2022-08-09T16:44:56.283Z,24.10
2022-08-09T16:48:39.162Z,24.00
2022-08-09T16:50:30.452Z,23.90
2022-08-09T16:52:57.025Z,23.90
2022-08-09T16:55:24.099Z,23.80
2022-08-09T16:58:09.815Z,23.70
2022-08-09T17:00:38.720Z,23.50
2022-08-09T17:03:22.056Z,23.50
2022-08-09T17:06:06.771Z,23.50
2022-08-09T17:08:45.243Z,23.40
2022-08-09T17:11:32.763Z,23.40
2022-08-09T17:14:26.259Z,23.30
2022-08-09T17:17:01.117Z,23.20
2022-08-09T17:19:46.856Z,23.10
2022-08-09T17:22:23.488Z,23.10
2022-08-09T17:24:54.878Z,23.10
2022-08-09T17:27:22.505Z,23.10
2022-08-09T17:29:50.623Z,22.90
2022-08-09T17:32:20.364Z,22.90
2022-08-09T17:35:10.652Z,22.90
2022-08-09T17:38:02.362Z,22.70
2022-08-09T17:40:33.327Z,22.80
2022-08-09T17:43:11.157Z,22.80
2022-08-09T17:46:03.612Z,22.60
2022-08-09T17:48:38.802Z,22.50
2022-08-09T17:51:18.669Z,22.50
2022-08-09T17:53:52.079Z,22.50
2022-08-09T17:56:27.351Z,22.50
2022-08-09T17:58:59.787Z,22.40
2022-08-09T18:02:03.613Z,22.40
2022-08-09T18:04:14.447Z,22.40
2022-08-09T18:06:43.117Z,22.30
2022-08-09T18:09:21.615Z,22.20
2022-08-09T18:12:15.239Z,22.20
2022-08-09T18:14:37.114Z,22.10
2022-08-09T18:17:18.842Z,22.10
2022-08-09T18:20:55.322Z,22.10
2022-08-09T18:22:51.007Z,21.90
2022-08-09T18:25:18.289Z,21.80
2022-08-09T18:28:02.234Z,21.70
2022-08-09T18:30:42.991Z,21.60
2022-08-09T18:33:16.672Z,21.60
2022-08-09T18:35:58.890Z,21.60
2022-08-09T18:38:27.545Z,21.60
2022-08-09T18:40:55.302Z,21.60
2022-08-09T18:43:23.473Z,21.60
2022-08-09T18:46:50.911Z,21.50
2022-08-09T18:48:37.337Z,21.50
2022-08-09T18:51:04.622Z,21.40
2022-08-09T18:53:55.898Z,21.40
2022-08-09T18:56:27.901Z,21.40
2022-08-09T18:58:56.596Z,21.20
2022-08-09T19:01:24.115Z,21.10
2022-08-09T19:04:01.728Z,21.10
2022-08-09T19:06:38.601Z,21.10
2022-08-09T19:09:07.096Z,21.00
2022-08-09T19:11:37.883Z,21.00
2022-08-09T19:14:06.601Z,20.90
2022-08-09T19:16:36.234Z,20.90
2022-08-09T19:19:26.044Z,20.90
2022-08-09T19:22:06.334Z,20.90
2022-08-09T19:24:38.367Z,20.90
2022-08-09T19:27:16.442Z,20.80
2022-08-09T19:30:24.693Z,20.80
2022-08-09T19:32:31.618Z,20.70
2022-08-09T19:35:00.591Z,20.60
2022-08-09T19:37:29.266Z,20.60
2022-08-09T19:40:08.900Z,20.50
2022-08-09T19:42:35.973Z,20.50
2022-08-09T19:45:06.355Z,20.50
2022-08-09T19:47:38.370Z,20.40
2022-08-09T19:50:47.293Z,20.40
2022-08-09T19:52:52.569Z,20.30
2022-08-09T19:55:30.419Z,20.20
2022-08-09T19:57:58.020Z,20.20
2022-08-09T20:00:24.959Z,20.10
2022-08-09T20:04:29.823Z,20.00
2022-08-09T20:05:45.987Z,19.90
2022-08-09T20:08:12.982Z,19.90
2022-08-09T20:10:43.859Z,19.80
2022-08-09T20:13:11.196Z,19.70
2022-08-09T20:16:35.697Z,19.60
2022-08-09T20:18:28.048Z,19.60
2022-08-09T20:20:56.564Z,19.60
2022-08-09T20:23:24.253Z,19.40
2022-08-09T20:26:06.921Z,19.40
2022-08-09T20:28:48.021Z,19.40
2022-08-09T20:31:16.139Z,19.40
2022-08-09T20:33:44.355Z,19.50
2022-08-09T20:36:12.456Z,19.40
2022-08-09T20:41:32.170Z,19.20
2022-08-09T20:44:02.358Z,19.20
2022-08-09T20:46:42.344Z,19.10
2022-08-09T20:49:11.254Z,19.10
2022-08-09T20:51:41.347Z,19.00
2022-08-09T20:54:12.702Z,19.00
2022-08-09T20:56:53.410Z,18.90
2022-08-09T20:59:50.273Z,18.90
2022-08-09T21:02:10.481Z,18.80
2022-08-09T21:05:57.690Z,18.80
2022-08-09T21:07:38.469Z,18.70
2022-08-09T21:10:08.051Z,18.70
2022-08-09T21:12:37.635Z,18.70
2022-08-09T21:15:05.901Z,18.70
2022-08-09T21:18:10.996Z,18.60
2022-08-09T21:20:26.757Z,18.60
2022-08-09T21:22:57.327Z,18.60
2022-08-09T21:25:44.293Z,18.50
2022-08-09T21:28:34.453Z,18.50
2022-08-09T21:31:17.416Z,18.50
2022-08-09T21:33:52.536Z,18.40
2022-08-09T21:36:27.790Z,18.40
2022-08-09T21:38:57.925Z,18.30
2022-08-09T21:42:06.059Z,18.30
2022-08-09T21:44:34.507Z,18.30
2022-08-09T21:47:04.041Z,18.10
2022-08-09T21:49:39.429Z,18.00
2022-08-09T21:52:07.983Z,18.00
2022-08-09T21:54:41.905Z,18.00
2022-08-09T21:57:36.833Z,18.00
2022-08-09T21:59:59.713Z,18.00
2022-08-09T22:02:29.566Z,18.00
2022-08-09T22:05:08.684Z,18.00
2022-08-09T22:07:51.655Z,17.90
2022-08-09T22:10:23.346Z,17.90
2022-08-09T22:12:52.090Z,17.80
2022-08-09T22:15:20.698Z,17.70
2022-08-09T22:17:50.868Z,17.70
2022-08-09T22:20:21.783Z,17.70
2022-08-09T22:22:54.149Z,17.70
2022-08-09T22:26:06.103Z,17.70
2022-08-09T22:28:07.901Z,17.60
2022-08-09T22:30:34.784Z,17.50
2022-08-09T22:33:09.262Z,17.50
2022-08-09T22:36:01.133Z,17.40
2022-08-09T22:38:23.962Z,17.40
2022-08-09T22:40:57.480Z,17.40
2022-08-09T22:44:01.755Z,17.40
2022-08-09T22:48:16.723Z,17.40
2022-08-09T22:49:09.551Z,17.40
2022-08-09T22:51:38.499Z,17.30
2022-08-09T22:54:08.238Z,17.30
2022-08-09T22:56:41.384Z,17.30
2022-08-09T22:59:56.884Z,17.30
2022-08-09T23:01:56.114Z,17.20
2022-08-09T23:04:25.601Z,17.10
2022-08-09T23:07:14.095Z,17.10
2022-08-09T23:09:43.005Z,17.00
2022-08-09T23:12:10.862Z,16.90
2022-08-09T23:14:42.533Z,16.90
2022-08-09T23:17:10.539Z,16.90
2022-08-09T23:20:06.933Z,16.80
2022-08-09T23:22:24.738Z,16.90
2022-08-09T23:24:51.601Z,16.80
2022-08-09T23:27:18.689Z,16.80
2022-08-09T23:29:46.021Z,16.70
2022-08-09T23:32:12.879Z,16.60
2022-08-09T23:34:39.641Z,16.60
2022-08-09T23:37:06.771Z,16.60
2022-08-09T23:39:33.605Z,16.60
2022-08-09T23:42:00.404Z,16.50
2022-08-09T23:44:27.154Z,16.40
2022-08-09T23:46:57.218Z,16.50
2022-08-09T23:49:26.038Z,16.40
2022-08-09T23:51:54.097Z,16.50
2022-08-09T23:54:25.804Z,16.50
2022-08-09T23:56:56.268Z,16.40
2022-08-09T23:59:25.220Z,16.40
